Terminal Aerodrome Forecast
Issued by NWS

Home | Current Version | Previous Version | Text Only | Print | Product List | Glossary On
Versions: 1 2 3 4 5 6 7 8 9 10 11 12 13 14
000
FTUS42 KMLB 051725
TAFFPR
TAF
KFPR 051725Z 0518/0618 06012G16KT P6SM VCSH FEW020 BKN050 OVC090
      TEMPO 0518/0519 5SM SHRA BKN025 BKN040
     FM060000 07011KT P6SM VCSH SCT040 BKN250
     FM060600 04008KT P6SM VCSH FEW025 BKN080
     FM061200 36013KT P6SM VCSH FEW025 SCT050 BKN250=

USA.gov is the U.S. government's official web portal to all federal, state and local government web resources and services.